Time;durP1;ratioP1;P1;durP2;ratioP2;P2;SDS_P1;SDS_P2;PMS_P1;PMS_P2;Temp;Humidity;BMP_temperature;BMP_pressure;BME280_temperature;BME280_humidity;BME280_pressure;Samples;Min_cycle;Max_cycle;Signal;HPM_P1;HPM_P2
2023/07/23 00:05:01;;;;;;;12.50;10.60;;;;;;;14.29;73.46;98727.12;227005;1273;22547;-71
2023/07/23 00:10:19;;;;;;;12.10;10.20;;;;;;;14.21;73.70;98723.42;226856;1273;22540;-71
2023/07/23 00:15:35;;;;;;;12.00;10.80;;;;;;;14.15;73.82;98719.77;226990;1272;22563;-71
2023/07/23 00:20:48;;;;;;;12.60;11.40;;;;;;;14.08;73.94;98722.46;226884;1275;22528;-71
2023/07/23 00:25:51;;;;;;;14.30;12.30;;;;;;;14.01;74.24;98721.75;226889;1275;22558;-71
2023/07/23 00:31:01;;;;;;;13.10;11.50;;;;;;;13.96;74.37;98721.27;226950;1271;22557;-71
2023/07/23 00:36:38;;;;;;;11.30;10.10;;;;;;;13.89;74.63;98712.61;226918;1272;23094;-72
2023/07/23 00:41:44;;;;;;;11.10;10.10;;;;;;;13.83;74.71;98715.13;226965;1275;22583;-71
2023/07/23 00:46:53;;;;;;;11.90;10.30;;;;;;;13.76;74.77;98716.38;226850;1272;22586;-72
2023/07/23 00:52:00;;;;;;;11.40;10.20;;;;;;;13.69;75.05;98711.65;226994;1275;22879;-71
2023/07/23 00:57:07;;;;;;;;;;;;;;;13.63;75.06;98706.99;226935;1275;22676;-71
2023/07/23 01:02:15;;;;;;;11.40;10.30;;;;;;;13.58;75.24;98704.91;226820;1275;22553;-71
2023/07/23 01:07:24;;;;;;;10.90;9.60;;;;;;;13.53;75.37;98704.89;226810;1275;22548;-71
2023/07/23 01:12:39;;;;;;;12.60;10.30;;;;;;;13.48;75.46;98699.04;226806;1275;22572;-71
2023/07/23 01:17:49;;;;;;;10.80;9.60;;;;;;;13.44;75.67;98704.34;226938;1270;22663;-71
2023/07/23 01:23:40;;;;;;;;;;;;;;;;;;;;;
2023/07/23 01:28:43;;;;;;;11.90;10.60;;;;;;;13.40;76.07;98696.14;226891;1273;22556;-71
2023/07/23 01:41:04;;;;;;;;;;;;;;;;;;;;;
2023/07/23 01:47:07;;;;;;;13.80;10.70;;;;;;;13.36;76.60;98680.52;226680;1275;22965;-70
2023/07/23 01:52:35;;;;;;;14.40;11.40;;;;;;;13.36;76.86;98676.88;226921;1275;22558;-70
2023/07/23 01:59:09;;;;;;;;;;;;;;;;;;;;;
2023/07/23 02:05:26;;;;;;;13.40;11.40;;;;;;;13.33;77.05;98678.36;226955;1275;22534;-70
2023/07/23 02:11:13;;;;;;;14.10;11.60;;;;;;;13.31;77.27;98678.58;227031;1275;22640;-70
2023/07/23 02:17:04;;;;;;;14.20;12.00;;;;;;;13.28;77.52;98680.86;226944;1275;24919;-70
2023/07/23 02:23:10;;;;;;;;;;;;;;;;;;;;;
2023/07/23 02:29:06;;;;;;;12.90;11.40;;;;;;;13.23;77.82;98683.80;226889;1275;22549;-70
2023/07/23 02:34:47;;;;;;;14.00;11.20;;;;;;;13.22;77.91;98689.97;226970;1275;22520;-70
2023/07/23 02:40:48;;;;;;;11.80;10.20;;;;;;;13.22;78.20;98686.95;226741;1275;22568;-70
2023/07/23 02:46:03;;;;;;;11.20;10.10;;;;;;;13.22;78.42;98689.77;226889;1273;22545;-70
2023/07/23 02:51:44;;;;;;;;;;;;;;;;;;;;;
2023/07/23 02:57:10;;;;;;;12.70;11.20;;;;;;;13.20;78.51;98685.98;227036;1275;22503;-70
2023/07/23 03:03:06;;;;;;;12.00;10.40;;;;;;;13.20;78.71;98692.07;226928;1275;22526;-70
2023/07/23 03:08:50;;;;;;;13.00;10.80;;;;;;;13.20;78.70;98683.55;227070;1273;25319;-70
2023/07/23 03:14:24;;;;;;;13.60;10.80;;;;;;;13.21;78.85;98686.14;226747;1275;22531;-71
2023/07/23 03:19:53;;;;;;;13.10;10.70;;;;;;;13.20;78.90;98687.25;227001;1273;22536;-71
2023/07/23 03:24:57;;;;;;;11.70;10.40;;;;;;;13.21;78.85;98687.90;226903;1272;22529;-70
2023/07/23 03:29:59;;;;;;;13.10;10.70;;;;;;;13.23;78.88;98682.26;226845;1272;22565;-71
2023/07/23 03:35:14;;;;;;;11.50;10.20;;;;;;;13.30;78.85;98684.70;226908;1272;22524;-71
2023/07/23 03:53:12;;;;;;;11.80;8.70;;;;;;;14.42;78.28;98678.36;227004;1275;22804;-71
2023/07/23 03:59:19;;;;;;;11.00;8.70;;;;;;;14.91;77.82;98674.92;226891;1275;22548;-71
2023/07/23 04:04:25;;;;;;;10.10;8.40;;;;;;;15.19;77.49;98679.73;226911;1272;22530;-71
2023/07/23 04:09:33;;;;;;;10.00;8.40;;;;;;;15.28;77.05;98680.21;226885;1275;22540;-71
2023/07/23 04:15:13;;;;;;;9.10;7.90;;;;;;;15.30;76.62;98681.76;227010;1275;25400;-71
2023/07/23 04:20:16;;;;;;;9.30;8.30;;;;;;;15.36;76.67;98677.92;226880;1272;22550;-71
2023/07/23 04:25:33;;;;;;;11.50;8.10;;;;;;;15.45;76.83;98675.61;227041;1273;24968;-71
2023/07/23 04:30:39;;;;;;;9.10;7.60;;;;;;;15.55;76.57;98672.90;226868;1272;22539;-71
2023/07/23 04:36:29;;;;;;;8.90;7.60;;;;;;;15.65;76.45;98675.21;226898;1275;22529;-71
2023/07/23 04:41:44;;;;;;;9.10;7.50;;;;;;;15.74;75.98;98676.70;226895;1265;22537;-71
2023/07/23 04:46:49;;;;;;;11.00;8.00;;;;;;;15.82;75.74;98673.25;226925;1272;22537;-71
2023/07/23 04:52:06;;;;;;;9.80;7.40;;;;;;;15.96;75.59;98666.96;226812;1275;22543;-71
2023/07/23 04:57:24;;;;;;;9.30;7.00;;;;;;;16.05;75.42;98667.45;226993;1269;22539;-70
2023/07/23 05:02:32;;;;;;;9.90;6.40;;;;;;;16.11;75.40;98669.83;226999;1271;22539;-71
2023/07/23 05:07:51;;;;;;;9.50;6.90;;;;;;;16.21;75.02;98667.10;226810;1275;22546;-70
2023/07/23 05:13:15;;;;;;;8.70;7.10;;;;;;;16.36;74.88;98667.05;226965;1272;22518;-70
2023/07/23 05:18:31;;;;;;;8.40;6.00;;;;;;;16.57;74.44;98671.74;227028;1272;22533;-70
2023/07/23 05:23:41;;;;;;;8.60;6.30;;;;;;;16.74;74.17;98670.27;226822;1275;22713;-70
2023/07/23 05:28:53;;;;;;;8.10;6.10;;;;;;;16.87;74.05;98670.47;226768;1275;22547;-71
2023/07/23 05:33:59;;;;;;;7.80;6.00;;;;;;;16.98;73.91;98668.59;226823;1275;22544;-71
2023/07/23 05:39:40;;;;;;;9.30;6.00;;;;;;;17.09;73.37;98669.13;226830;1275;22574;-70
2023/07/23 05:45:34;;;;;;;8.40;5.60;;;;;;;17.24;73.30;98666.56;226778;1275;22614;-70
2023/07/23 05:56:21;;;;;;;6.50;5.50;;;;;;;17.43;72.43;98665.55;226845;1275;22533;-70
2023/07/23 06:01:23;;;;;;;6.30;5.70;;;;;;;17.62;72.40;98667.11;226897;1272;22507;-71
2023/07/23 06:06:29;;;;;;;7.30;5.80;;;;;;;17.80;72.16;98663.50;226892;1269;23200;-71
2023/07/23 06:17:47;;;;;;;6.90;5.60;;;;;;;18.09;71.95;98656.78;226934;1275;22540;-72
2023/07/23 06:22:58;;;;;;;8.40;6.30;;;;;;;18.23;71.48;98655.64;226917;1275;22542;-72
2023/07/23 06:28:08;;;;;;;7.40;5.30;;;;;;;18.39;71.31;98655.61;227020;1275;25239;-71
2023/07/23 06:33:44;;;;;;;9.50;6.00;;;;;;;18.54;71.11;98650.36;226816;1275;22527;-71
2023/07/23 06:38:47;;;;;;;6.50;5.70;;;;;;;18.80;71.12;98645.50;226887;1273;22572;-71
2023/07/23 06:43:52;;;;;;;8.10;6.20;;;;;;;19.22;71.17;98643.27;226913;1269;22539;-71
2023/07/23 06:49:00;;;;;;;5.90;5.10;;;;;;;19.61;70.56;98638.88;226927;1275;22640;-71
2023/07/23 06:54:08;;;;;;;5.90;4.60;;;;;;;19.91;69.83;98639.06;226911;1275;22517;-71
2023/07/23 06:59:34;;;;;;;14.60;12.40;;;;;;;20.34;69.25;98632.42;227054;1275;22573;-71
2023/07/23 07:04:53;;;;;;;5.40;4.20;;;;;;;20.73;68.23;98631.00;226777;1275;22526;-71
2023/07/23 07:09:56;;;;;;;6.70;5.00;;;;;;;21.13;67.54;98628.91;227060;1269;22599;-70
2023/07/23 07:15:04;;;;;;;5.70;4.70;;;;;;;21.44;66.12;98622.91;226842;1275;22534;-71
2023/07/23 07:20:12;;;;;;;5.50;4.40;;;;;;;21.64;65.24;98623.20;227020;1275;24463;-71
2023/07/23 07:25:37;;;;;;;4.80;4.00;;;;;;;21.80;64.50;98622.84;227043;1275;22529;-70
2023/07/23 07:30:43;;;;;;;6.20;4.10;;;;;;;21.90;63.68;98616.30;226989;1272;22622;-71
2023/07/23 07:35:58;;;;;;;5.50;3.80;;;;;;;22.04;63.96;98608.86;226835;1275;24186;-70
2023/07/23 07:41:01;;;;;;;5.70;3.70;;;;;;;22.32;63.82;98611.34;226888;1252;25239;-70
2023/07/23 07:46:05;;;;;;;4.90;3.90;;;;;;;22.59;62.51;98611.88;226910;1272;22556;-71
2023/07/23 07:51:11;;;;;;;3.80;3.50;;;;;;;22.80;62.04;98610.27;226867;1275;24413;-70
2023/07/23 07:56:17;;;;;;;3.60;3.30;;;;;;;23.04;61.39;98613.48;226962;1269;22529;-71
2023/07/23 08:01:30;;;;;;;6.80;3.70;;;;;;;23.19;60.26;98611.92;226862;1269;22520;-71
2023/07/23 08:06:40;;;;;;;4.40;3.60;;;;;;;23.39;60.39;98613.48;226771;1275;25490;-72
2023/07/23 08:11:44;;;;;;;3.60;3.30;;;;;;;23.57;59.21;98609.02;227069;1272;25310;-71
2023/07/23 08:16:49;;;;;;;4.20;3.70;;;;;;;23.62;58.50;98606.73;226757;1275;23016;-71
2023/07/23 08:21:52;;;;;;;3.80;3.50;;;;;;;23.61;57.95;98602.20;226871;1272;22530;-71
2023/07/23 08:26:59;;;;;;;5.10;3.70;;;;;;;23.68;58.17;98597.68;226818;1272;22588;-70
2023/07/23 08:32:05;;;;;;;4.40;3.90;;;;;;;23.87;58.03;98592.95;226808;1272;24196;-71
2023/07/23 08:37:29;;;;;;;5.60;3.60;;;;;;;24.06;56.85;98584.29;226850;1272;22540;-72
2023/07/23 08:42:56;;;;;;;4.20;3.60;;;;;;;24.28;57.44;98578.34;226738;1275;22530;-71
2023/07/23 08:48:17;;;;;;;4.20;3.50;;;;;;;24.61;56.37;98578.16;226907;1275;22650;-71
2023/07/23 08:53:23;;;;;;;6.80;3.60;;;;;;;24.85;55.97;98572.05;226864;1275;22536;-71
2023/07/23 08:58:33;;;;;;;8.60;3.40;;;;;;;25.12;55.44;98570.76;226820;1272;22642;-71
2023/07/23 09:03:49;;;;;;;;;;;;;;;;;;;;;
2023/07/23 09:08:59;;;;;;;4.00;3.30;;;;;;;25.46;54.24;98567.70;226848;1275;22526;-71
2023/07/23 09:14:17;;;;;;;3.80;3.50;;;;;;;25.65;54.01;98559.89;226869;1272;22539;-71
2023/07/23 09:19:29;;;;;;;3.60;3.20;;;;;;;25.87;53.93;98553.14;226926;1272;23076;-71
2023/07/23 09:24:35;;;;;;;3.70;3.10;;;;;;;26.05;53.01;98549.20;226757;1254;22558;-71
2023/07/23 09:29:41;;;;;;;3.80;3.20;;;;;;;26.24;52.98;98555.52;226778;1254;22542;-71
2023/07/23 09:34:49;;;;;;;4.90;3.30;;;;;;;26.22;52.41;98556.90;226897;1272;22537;-71
2023/07/23 09:39:58;;;;;;;3.50;3.20;;;;;;;26.20;52.71;98553.09;226992;1272;22546;-71
2023/07/23 09:45:04;;;;;;;3.60;3.20;;;;;;;26.46;52.39;98552.73;227001;1275;22558;-71
2023/07/23 09:50:10;;;;;;;8.20;3.20;;;;;;;26.79;50.08;98551.90;226835;1275;22537;-72
2023/07/23 09:55:23;;;;;;;3.40;3.10;;;;;;;27.14;48.72;98549.13;226885;1275;22541;-72
2023/07/23 10:00:26;;;;;;;6.80;3.10;;;;;;;27.38;47.45;98546.99;226935;1272;22534;-72
2023/07/23 10:05:28;;;;;;;3.40;3.10;;;;;;;27.69;46.02;98544.79;226838;1275;22544;-71
2023/07/23 10:10:31;;;;;;;2.80;2.60;;;;;;;27.79;45.97;98539.02;226824;1275;25069;-71
2023/07/23 10:15:36;;;;;;;3.90;3.10;;;;;;;27.67;45.40;98537.99;226736;1275;22593;-71
2023/07/23 10:20:39;;;;;;;2.90;2.70;;;;;;;27.74;44.41;98535.55;226988;1272;22552;-71
2023/07/23 10:25:44;;;;;;;3.10;2.90;;;;;;;28.00;44.40;98538.05;226807;1272;22533;-71
2023/07/23 10:30:46;;;;;;;3.20;2.90;;;;;;;28.22;43.05;98528.84;226827;1272;22541;-71
2023/07/23 10:36:09;;;;;;;3.00;2.80;;;;;;;28.41;42.86;98521.58;226835;1275;22533;-71
2023/07/23 10:41:15;;;;;;;2.80;2.50;;;;;;;28.38;42.80;98512.78;226949;1273;22532;-71
2023/07/23 10:46:21;;;;;;;3.40;3.10;;;;;;;28.56;41.69;98508.90;224821;1253;2736600;-73
2023/07/23 10:51:35;;;;;;;5.80;3.50;;;;;;;28.82;40.93;98501.04;226968;1275;22546;-71
2023/07/23 10:56:51;;;;;;;3.60;3.30;;;;;;;29.00;40.63;98494.02;226781;1275;22607;-71
2023/07/23 11:02:08;;;;;;;3.30;3.00;;;;;;;29.15;40.18;98502.02;226857;1275;22549;-71
2023/07/23 11:07:25;;;;;;;3.00;2.80;;;;;;;29.26;39.48;98496.79;226815;1272;22525;-71
2023/07/23 11:12:28;;;;;;;3.50;3.20;;;;;;;29.35;39.58;98490.98;226957;1272;23319;-71
2023/07/23 11:17:31;;;;;;;3.20;2.80;;;;;;;29.49;39.70;98484.75;226940;1275;22533;-71
2023/07/23 11:22:34;;;;;;;4.40;3.30;;;;;;;29.77;39.09;98484.92;226740;1275;22533;-72
2023/07/23 11:27:46;;;;;;;3.20;2.60;;;;;;;29.74;39.06;98483.96;226874;1275;24971;-73
2023/07/23 11:33:12;;;;;;;;;;;;;;;;;;;;;
2023/07/23 11:38:15;;;;;;;3.40;2.90;;;;;;;29.48;39.01;98470.38;227003;1272;22601;-71
2023/07/23 11:43:17;;;;;;;3.20;2.90;;;;;;;29.48;39.11;98465.31;226927;1272;22553;-72
2023/07/23 11:48:42;;;;;;;3.20;2.80;;;;;;;29.52;39.32;98457.40;227008;1275;22547;-71
2023/07/23 11:53:45;;;;;;;3.40;3.10;;;;;;;29.61;38.81;98450.19;226933;1272;21799;-71
2023/07/23 11:58:47;;;;;;;3.30;3.00;;;;;;;29.45;38.49;98451.52;226609;1275;22649;-71
2023/07/23 12:04:09;;;;;;;5.70;3.20;;;;;;;29.63;39.04;98440.90;226828;1273;22564;-71
2023/07/23 12:09:20;;;;;;;4.10;3.40;;;;;;;29.84;37.91;98435.09;226949;1275;22546;-71
2023/07/23 12:15:00;;;;;;;3.30;3.00;;;;;;;30.02;38.60;98430.32;226869;1275;22583;-71
2023/07/23 12:20:09;;;;;;;4.00;3.30;;;;;;;30.05;38.96;98424.45;227014;1275;22530;-71
2023/07/23 12:25:14;;;;;;;3.60;3.30;;;;;;;30.03;38.67;98420.48;226867;1275;22623;-71
2023/07/23 12:30:17;;;;;;;3.80;3.10;;;;;;;30.06;38.57;98416.54;226892;1272;25249;-71
2023/07/23 12:35:28;;;;;;;4.00;3.40;;;;;;;30.02;39.18;98412.64;226747;1275;22544;-71
2023/07/23 12:40:33;;;;;;;3.50;3.30;;;;;;;30.00;39.63;98418.95;227030;1272;22637;-71
2023/07/23 12:45:36;;;;;;;3.80;3.50;;;;;;;30.11;40.26;98412.71;226972;1273;22537;-71
2023/07/23 12:50:39;;;;;;;5.80;4.10;;;;;;;30.28;39.95;98410.95;227045;1275;22993;-71
2023/07/23 12:55:41;;;;;;;6.00;4.20;;;;;;;30.23;39.73;98402.70;226955;1275;22553;-71
2023/07/23 13:00:51;;;;;;;4.50;3.50;;;;;;;30.24;40.52;98396.98;226919;1272;22547;-71
2023/07/23 13:06:26;;;;;;;5.00;3.80;;;;;;;30.27;39.91;98386.75;227059;1275;25245;-72
2023/07/23 13:11:36;;;;;;;4.00;3.70;;;;;;;30.33;39.78;98384.60;226765;1274;22537;-71
2023/07/23 13:16:38;;;;;;;4.40;3.90;;;;;;;30.44;40.18;98379.37;226875;1272;25242;-71
2023/07/23 13:21:41;;;;;;;4.30;3.20;;;;;;;30.71;39.33;98370.10;226822;1275;22535;-71
2023/07/23 13:26:53;;;;;;;5.30;3.60;;;;;;;30.98;38.77;98365.76;226888;1272;22526;-72
2023/07/23 13:31:57;;;;;;;3.70;3.40;;;;;;;31.02;37.77;98360.81;227051;1273;22520;-72
2023/07/23 13:37:00;;;;;;;5.50;3.90;;;;;;;30.92;38.28;98356.23;226982;1275;22533;-71
2023/07/23 13:42:02;;;;;;;4.30;3.70;;;;;;;30.80;38.13;98357.21;226853;1275;22536;-71
2023/07/23 13:47:05;;;;;;;6.20;4.00;;;;;;;30.83;38.31;98356.94;226971;1273;22530;-71
2023/07/23 13:52:07;;;;;;;4.40;3.90;;;;;;;30.93;37.97;98349.80;226873;1275;22572;-71
2023/07/23 13:57:10;;;;;;;7.10;3.90;;;;;;;31.08;37.35;98339.48;226778;1275;25029;-71
2023/07/23 14:02:14;;;;;;;4.70;4.00;;;;;;;31.10;37.45;98337.05;226764;1275;23122;-71
2023/07/23 14:07:20;;;;;;;5.20;3.70;;;;;;;31.04;36.86;98338.55;226853;1275;22553;-71
2023/07/23 14:12:25;;;;;;;4.30;3.70;;;;;;;30.97;37.56;98328.69;226895;1254;22722;-72
2023/07/23 14:17:27;;;;;;;7.80;3.90;;;;;;;31.06;37.43;98319.73;226966;1273;23484;-71
2023/07/23 14:22:30;;;;;;;6.90;3.80;;;;;;;31.20;38.00;98314.52;226856;1275;22530;-71
2023/07/23 14:27:33;;;;;;;5.70;3.80;;;;;;;31.25;37.68;98311.88;226829;1275;22523;-71
2023/07/23 14:32:35;;;;;;;7.50;4.20;;;;;;;31.23;37.83;98308.92;226897;1273;24246;-72
2023/07/23 14:37:38;;;;;;;4.50;3.70;;;;;;;31.04;37.37;98313.05;226994;1272;25512;-71
2023/07/23 14:42:45;;;;;;;4.10;3.80;;;;;;;30.85;37.48;98301.16;226846;1270;22533;-71
2023/07/23 14:47:51;;;;;;;5.90;4.00;;;;;;;30.71;37.07;98297.54;226948;1275;22618;-71
2023/07/23 14:53:01;;;;;;;4.90;3.80;;;;;;;30.69;37.28;98287.62;226894;1274;22537;-71
2023/07/23 14:58:06;;;;;;;3.90;3.50;;;;;;;30.61;37.19;98292.91;226817;1275;22588;-71
2023/07/23 15:03:19;;;;;;;;;;;;;;;;;;;;;
2023/07/23 15:08:22;;;;;;;4.50;3.80;;;;;;;30.24;37.38;98275.02;226863;1273;24173;-71
2023/07/23 15:13:32;;;;;;;4.70;4.30;;;;;;;29.99;37.28;98279.38;226994;1275;25029;-71
2023/07/23 15:18:35;;;;;;;5.10;3.80;;;;;;;29.83;38.39;98279.40;226922;1272;22567;-71
2023/07/23 15:23:37;;;;;;;5.00;4.20;;;;;;;29.84;38.40;98276.69;226901;1275;22537;-71
2023/07/23 15:28:49;;;;;;;4.20;3.80;;;;;;;29.78;38.01;98274.30;226999;1273;25961;-71
2023/07/23 15:33:51;;;;;;;4.30;3.90;;;;;;;29.66;38.12;98266.47;226881;1274;22511;-71
2023/07/23 15:39:03;;;;;;;5.50;4.60;;;;;;;29.70;38.41;98258.54;226883;1271;22544;-71
2023/07/23 15:44:05;;;;;;;4.10;3.80;;;;;;;29.80;39.02;98260.67;226877;1275;22541;-71
2023/07/23 15:49:10;;;;;;;4.10;3.70;;;;;;;29.85;38.99;98253.09;226992;1272;22540;-71
2023/07/23 15:54:13;;;;;;;4.30;3.90;;;;;;;29.65;38.60;98249.46;226996;1274;24269;-71
2023/07/23 15:59:16;;;;;;;5.30;4.10;;;;;;;29.36;38.87;98242.38;226795;1275;22517;-71
2023/07/23 16:04:18;;;;;;;4.30;3.80;;;;;;;29.24;39.27;98234.45;226892;1263;22544;-71
2023/07/23 16:09:20;;;;;;;5.10;4.10;;;;;;;29.20;39.35;98229.09;226821;1275;26005;-72
2023/07/23 16:14:23;;;;;;;4.40;4.00;;;;;;;29.27;39.82;98226.77;227019;1272;22560;-72
2023/07/23 16:19:27;;;;;;;4.50;4.10;;;;;;;29.52;39.83;98230.16;227026;1275;22534;-72
2023/07/23 16:24:30;;;;;;;5.90;4.00;;;;;;;29.66;39.75;98222.80;226974;1272;22542;-72
2023/07/23 16:29:32;;;;;;;4.10;3.70;;;;;;;29.72;40.14;98226.10;226989;1275;22575;-72
2023/07/23 16:34:42;;;;;;;4.40;3.90;;;;;;;29.63;40.04;98215.54;226814;1275;22530;-72
2023/07/23 16:39:47;;;;;;;4.80;3.90;;;;;;;29.41;40.31;98212.65;227003;1273;25371;-71
2023/07/23 16:44:53;;;;;;;5.40;3.90;;;;;;;29.18;40.70;98208.72;226866;1273;22523;-71
2023/07/23 16:50:08;;;;;;;4.40;4.00;;;;;;;28.96;40.97;98209.30;226723;1275;25195;-71
2023/07/23 16:55:14;;;;;;;4.00;3.70;;;;;;;28.73;41.32;98202.06;226976;1263;22565;-72
2023/07/23 17:00:21;;;;;;;;;;;;;;;28.50;41.56;98199.79;226880;1275;22505;-72
2023/07/23 17:05:26;;;;;;;4.50;4.10;;;;;;;28.24;42.16;98199.67;226975;1275;22543;-72
2023/07/23 17:10:29;;;;;;;5.50;4.30;;;;;;;28.03;42.52;98196.25;227009;1270;22488;-71
2023/07/23 17:15:46;;;;;;;5.20;4.20;;;;;;;27.87;42.75;98193.56;226875;1269;22524;-71
2023/07/23 17:21:09;;;;;;;;;;;;;;;;;;;;;
2023/07/23 17:26:11;;;;;;;6.00;4.20;;;;;;;27.85;43.31;98189.05;226780;1275;22545;-72
2023/07/23 17:31:26;;;;;;;6.00;4.00;;;;;;;27.93;43.33;98190.77;226800;1275;22542;-72
2023/07/23 17:36:28;;;;;;;5.10;3.90;;;;;;;27.90;43.40;98190.11;226681;1270;22544;-72
2023/07/23 17:41:31;;;;;;;5.00;3.90;;;;;;;27.80;43.38;98189.38;226810;1273;22556;-72
2023/07/23 17:46:33;;;;;;;4.70;4.20;;;;;;;27.67;43.60;98182.40;226957;1275;22551;-71
2023/07/23 17:51:36;;;;;;;4.60;4.20;;;;;;;27.54;43.70;98176.27;226948;1275;22769;-71
2023/07/23 17:56:38;;;;;;;7.60;3.90;;;;;;;27.39;43.88;98176.55;226825;1275;22533;-70
2023/07/23 18:01:43;;;;;;;4.40;3.90;;;;;;;27.26;44.09;98181.23;226900;1272;22521;-71
2023/07/23 18:06:47;;;;;;;4.40;4.00;;;;;;;27.11;44.19;98181.79;226860;1275;22544;-71
2023/07/23 18:11:49;;;;;;;4.80;4.40;;;;;;;26.91;44.27;98177.89;227093;1272;22540;-71
2023/07/23 18:16:51;;;;;;;4.90;4.40;;;;;;;26.71;44.45;98178.11;227020;1275;22541;-71
2023/07/23 18:21:53;;;;;;;5.80;4.40;;;;;;;26.51;44.65;98176.23;226806;1273;22557;-71
2023/07/23 18:26:56;;;;;;;6.30;4.30;;;;;;;26.33;44.87;98173.23;226806;1270;25392;-71
2023/07/23 18:31:59;;;;;;;4.90;3.90;;;;;;;26.12;44.89;98168.85;226910;1269;24633;-70
2023/07/23 18:37:04;;;;;;;4.60;4.20;;;;;;;25.95;45.06;98174.70;227027;1267;22560;-71
2023/07/23 18:42:09;;;;;;;6.00;4.30;;;;;;;25.77;45.35;98176.80;226825;1270;24391;-71
2023/07/23 18:47:20;;;;;;;6.00;4.00;;;;;;;25.59;45.65;98173.98;226941;1274;22577;-71
2023/07/23 18:52:26;;;;;;;6.20;5.60;;;;;;;25.41;45.90;98173.08;226933;1271;25288;-71
2023/07/23 18:57:30;;;;;;;5.50;3.90;;;;;;;25.23;46.09;98178.48;226702;1275;22549;-70
2023/07/23 19:02:42;;;;;;;9.40;8.50;;;;;;;25.05;46.32;98181.13;226861;1269;22544;-72
2023/07/23 19:07:44;;;;;;;4.60;4.20;;;;;;;24.86;46.77;98186.69;226866;1269;22558;-71
2023/07/23 19:12:47;;;;;;;5.90;4.20;;;;;;;24.66;47.09;98187.20;226924;1270;22647;-71
2023/07/23 19:17:49;;;;;;;8.10;4.00;;;;;;;24.49;47.37;98191.13;226957;1275;22577;-71
2023/07/23 19:23:13;;;;;;;4.90;4.30;;;;;;;24.36;47.62;98193.54;226748;1275;22609;-72
2023/07/23 19:28:20;;;;;;;4.70;3.80;;;;;;;24.25;47.89;98195.19;226792;1275;22542;-72
2023/07/23 19:33:43;;;;;;;5.60;3.90;;;;;;;24.17;48.05;98197.60;226977;1273;22760;-72
2023/07/23 19:38:49;;;;;;;4.70;4.10;;;;;;;24.07;48.23;98194.55;226925;1275;22726;-71
2023/07/23 19:43:55;;;;;;;4.10;3.70;;;;;;;23.93;48.37;98194.02;227050;1271;22588;-71
2023/07/23 19:49:19;;;;;;;6.10;4.20;;;;;;;23.80;48.65;98196.34;226897;1273;22533;-70
2023/07/23 19:54:49;;;;;;;4.60;4.10;;;;;;;23.69;48.85;98191.08;226815;1275;25474;-71
2023/07/23 19:59:51;;;;;;;4.40;4.00;;;;;;;23.56;49.14;98194.40;226831;1273;22539;-71
2023/07/23 20:05:03;;;;;;;5.30;3.70;;;;;;;23.46;49.41;98193.77;226882;1272;25337;-71
2023/07/23 20:10:08;;;;;;;5.00;3.90;;;;;;;23.39;49.74;98193.70;227057;1275;22564;-71
2023/07/23 20:15:19;;;;;;;6.10;3.90;;;;;;;23.32;49.88;98194.14;226869;1272;23698;-71
2023/07/23 20:20:33;;;;;;;6.50;4.40;;;;;;;23.23;50.18;98195.41;226887;1275;22592;-71
2023/07/23 20:25:39;;;;;;;5.40;4.20;;;;;;;23.13;50.43;98196.70;226862;1272;22685;-71
2023/07/23 20:31:02;;;;;;;7.00;4.60;;;;;;;23.05;50.60;98193.95;226699;1272;25249;-72
2023/07/23 20:36:10;;;;;;;5.40;4.20;;;;;;;23.00;50.91;98195.56;226794;1274;22551;-72
2023/07/23 20:41:16;;;;;;;5.40;4.30;;;;;;;22.97;51.14;98202.88;226993;1275;23407;-71
2023/07/23 20:52:20;;;;;;;5.40;3.90;;;;;;;22.84;51.54;98205.58;226894;1273;22560;-71
2023/07/23 20:57:25;;;;;;;5.30;3.90;;;;;;;22.79;51.69;98207.86;226878;1272;22563;-71
2023/07/23 21:03:04;;;;;;;6.80;4.20;;;;;;;22.78;51.99;98211.76;226765;1275;22534;-71
2023/07/23 21:08:35;;;;;;;;;;;;;;;;;;;;;
2023/07/23 21:13:46;;;;;;;6.30;4.10;;;;;;;22.82;52.38;98215.98;226909;1275;22876;-71
2023/07/23 21:18:57;;;;;;;5.20;4.00;;;;;;;22.80;52.43;98208.88;226945;1275;22606;-71
2023/07/23 21:24:22;;;;;;;4.90;4.00;;;;;;;22.75;52.60;98208.03;226920;1272;22529;-71
2023/07/23 21:29:48;;;;;;;4.50;3.70;;;;;;;22.65;52.99;98198.63;226823;1275;24260;-71
2023/07/23 21:35:54;;;;;;;;;;;;;;;;;;;;;
2023/07/23 21:41:18;;;;;;;7.40;4.40;;;;;;;22.46;53.68;98190.93;226941;1275;22919;-70
2023/07/23 21:46:46;;;;;;;4.40;4.00;;;;;;;22.33;54.14;98184.94;226950;1275;22562;-70
2023/07/23 21:51:56;;;;;;;4.30;3.70;;;;;;;22.23;54.36;98190.06;227036;1275;22609;-70
2023/07/23 21:57:42;;;;;;;9.70;4.20;;;;;;;22.13;54.85;98188.55;226966;1275;22539;-70
2023/07/23 22:03:21;;;;;;;4.20;3.70;;;;;;;22.07;55.37;98187.13;226863;1272;24942;-70
2023/07/23 22:08:51;;;;;;;3.30;3.00;;;;;;;22.06;55.96;98183.52;226924;1275;22547;-71
2023/07/23 22:13:57;;;;;;;5.70;3.60;;;;;;;22.10;56.34;98180.21;226793;1275;22609;-70
2023/07/23 22:19:11;;;;;;;4.20;3.50;;;;;;;22.15;56.43;98177.65;226944;1272;22546;-71
2023/07/23 22:25:17;;;;;;;;;;;;;;;;;;;;;
2023/07/23 22:30:53;;;;;;;4.60;3.60;;;;;;;22.29;56.87;98175.36;227000;1275;22532;-71
2023/07/23 22:42:56;;;;;;;4.80;3.20;;;;;;;22.35;57.05;98176.85;227056;1262;22536;-71
2023/07/23 22:48:49;;;;;;;3.40;3.00;;;;;;;22.37;57.14;98171.23;222745;1272;5482066;-71
2023/07/23 22:53:56;;;;;;;4.80;3.30;;;;;;;22.40;57.28;98172.63;226894;1272;22760;-71
2023/07/23 22:59:53;;;;;;;4.00;3.60;;;;;;;22.43;57.43;98168.59;226790;1275;25288;-71
2023/07/23 23:05:37;;;;;;;;;;;;;;;;;;;;;
2023/07/23 23:11:00;;;;;;;3.50;2.90;;;;;;;22.45;57.92;98170.26;227018;1275;22658;-71
2023/07/23 23:17:07;;;;;;;;;;;;;;;;;;;;;
2023/07/23 23:23:06;;;;;;;;;;;;;;;;;;;;;
2023/07/23 23:29:30;;;;;;;4.80;3.20;;;;;;;22.48;58.63;98158.98;226970;1275;24219;-71
2023/07/23 23:35:08;;;;;;;;;;;;;;;;;;;;;
2023/07/23 23:46:30;;;;;;;8.40;4.10;;;;;;;22.67;59.08;98161.06;227024;1252;22533;-71
2023/07/23 23:52:29;;;;;;;3.80;3.20;;;;;;;22.72;59.36;98154.77;226932;1275;22547;-71
2023/07/23 23:57:40;;;;;;;3.40;3.10;;;;;;;22.77;59.38;98166.39;226825;1272;22504;-71
